Time;durP1;ratioP1;P1;durP2;ratioP2;P2;SDS_P1;SDS_P2;PMS_P1;PMS_P2;Temp;Humidity;BMP_temperature;BMP_pressure;BME280_temperature;BME280_humidity;BME280_pressure;Samples;Min_cycle;Max_cycle;Signal;HPM_P1;HPM_P2
2022/11/01 00:00:00;;;;;;;87.60;63.50;;;22.90;57.50;;;;;;4842412;55;21057;-42
2022/11/01 00:05:02;;;;;;;88.82;65.18;;;22.90;57.40;;;;;;4906407;55;21021;-34
2022/11/01 00:10:04;;;;;;;83.85;63.08;;;22.90;57.30;;;;;;4901543;55;21468;-31
2022/11/01 00:15:05;;;;;;;83.60;62.83;;;22.90;57.30;;;;;;4764681;55;21129;-38
2022/11/01 00:20:07;;;;;;;80.40;60.20;;;22.80;57.10;;;;;;4936780;55;21014;-40
2022/11/01 00:25:08;;;;;;;84.18;62.05;;;22.80;57.20;;;;;;4958655;55;21014;-45
2022/11/01 00:30:10;;;;;;;81.90;60.33;;;22.90;57.80;;;;;;4745300;59;21450;-43
2022/11/01 00:35:11;;;;;;;80.70;60.15;;;22.90;57.10;;;;;;4749707;55;21118;-33
2022/11/01 00:40:12;;;;;;;83.50;62.00;;;22.80;57.20;;;;;;4823508;55;21057;-43
2022/11/01 00:45:12;;;;;;;78.78;59.85;;;22.80;57.10;;;;;;5020829;55;21086;-34
2022/11/01 00:50:14;;;;;;;79.57;58.95;;;22.80;57.00;;;;;;5034705;55;21093;-44
2022/11/01 00:55:15;;;;;;;76.93;58.17;;;22.80;57.00;;;;;;4912372;55;21062;-40
2022/11/01 01:00:16;;;;;;;78.47;56.50;;;22.80;57.10;;;;;;5055615;55;20990;-40
2022/11/01 01:05:17;;;;;;;76.90;57.33;;;22.80;57.20;;;;;;4817497;55;21086;-34
2022/11/01 01:10:18;;;;;;;77.47;57.20;;;22.80;57.00;;;;;;4943011;55;21475;-37
2022/11/01 01:15:19;;;;;;;72.87;54.95;;;22.80;57.20;;;;;;4855411;55;21070;-43
2022/11/01 01:20:21;;;;;;;73.55;55.75;;;22.80;57.20;;;;;;5027186;55;21033;-43
2022/11/01 01:25:23;;;;;;;71.45;53.55;;;22.80;57.70;;;;;;4744720;56;21021;-33
2022/11/01 01:30:23;;;;;;;74.95;54.45;;;22.80;57.20;;;;;;4888292;55;21065;-37
2022/11/01 01:35:24;;;;;;;73.12;52.88;;;22.80;57.60;;;;;;5046284;55;21018;-44
2022/11/01 01:40:25;;;;;;;67.70;51.28;;;22.80;57.00;;;;;;4745644;59;21046;-46
2022/11/01 01:45:36;;;;;;;71.47;52.70;;;22.80;57.10;;;;;;4923080;55;21077;-36
2022/11/01 01:50:47;;;;;;;72.82;53.17;;;22.80;57.10;;;;;;4991968;55;20994;-35
2022/11/01 01:56:04;;;;;;;66.60;50.17;;;22.80;57.00;;;;;;4745768;59;21014;-39
2022/11/01 02:01:05;;;;;;;68.55;50.97;;;22.70;56.80;;;;;;4781260;55;21054;-35
2022/11/01 02:06:14;;;;;;;61.37;48.13;;;22.80;56.80;;;;;;4880110;55;21563;-40
2022/11/01 02:11:17;;;;;;;64.53;48.92;;;22.80;56.90;;;;;;4745485;59;21054;-36
2022/11/01 02:16:54;;;;;;;64.03;49.83;;;22.80;56.80;;;;;;4780617;55;20994;-33
2022/11/01 02:25:24;;;;;;;63.80;48.60;;;22.80;56.70;;;;;;4745603;55;21074;-39
2022/11/01 02:30:37;;;;;;;65.35;47.80;;;22.80;56.80;;;;;;5000456;55;21018;-35
2022/11/01 02:35:54;;;;;;;67.82;49.05;;;22.80;56.80;;;;;;4968403;55;21033;-40
2022/11/01 02:41:04;;;;;;;;;;;22.70;56.70;;;;;;4749393;55;21468;-32
2022/11/01 02:51:30;;;;;;;60.50;46.13;;;22.80;56.90;;;;;;5172682;55;21073;-32
2022/11/01 02:56:31;;;;;;;63.28;45.78;;;22.80;56.80;;;;;;4840117;55;21049;-40
2022/11/01 03:01:34;;;;;;;57.10;43.78;;;22.70;56.70;;;;;;4745639;59;21094;-36
2022/11/01 03:06:41;;;;;;;60.83;46.33;;;22.70;56.70;;;;;;4917816;55;21015;-31
2022/11/01 03:13:00;;;;;;;57.70;43.10;;;22.70;56.60;;;;;;4907412;55;20986;-36
2022/11/01 03:18:06;;;;;;;55.10;42.65;;;22.70;56.50;;;;;;4840425;55;21089;-41
2022/11/01 03:23:09;;;;;;;58.58;44.50;;;22.70;56.70;;;;;;4896439;55;21074;-37
2022/11/01 03:28:28;;;;;;;57.17;43.30;;;22.70;56.70;;;;;;4891545;55;21006;-41
2022/11/01 03:33:31;;;;;;;56.58;42.55;;;22.80;56.60;;;;;;4892503;55;20990;-40
2022/11/01 03:38:36;;;;;;;55.38;40.67;;;22.70;56.60;;;;;;4763751;55;21013;-40
2022/11/01 03:43:37;;;;;;;55.15;40.63;;;22.70;56.70;;;;;;4782901;55;21010;-35
2022/11/01 03:48:39;;;;;;;53.22;40.53;;;22.70;56.40;;;;;;4991303;55;21050;-35
2022/11/01 03:53:40;;;;;;;53.70;40.63;;;22.80;56.50;;;;;;4835613;55;21623;-34
2022/11/01 03:58:40;;;;;;;50.75;38.72;;;22.70;56.60;;;;;;5084040;55;21078;-29
2022/11/01 04:03:42;;;;;;;53.17;40.28;;;22.70;56.40;;;;;;4788217;55;21002;-37
2022/11/01 04:08:43;;;;;;;52.65;41.10;;;22.70;56.30;;;;;;5128970;55;21025;-35
2022/11/01 04:13:46;;;;;;;48.10;37.13;;;22.70;56.30;;;;;;4780598;55;21013;-46
2022/11/01 04:24:07;;;;;;;48.28;37.40;;;22.70;56.30;;;;;;4745064;55;21591;-49
2022/11/01 04:29:07;;;;;;;50.40;37.75;;;22.70;56.40;;;;;;4765028;55;21547;-43
2022/11/01 04:34:08;;;;;;;51.70;38.88;;;22.70;56.30;;;;;;4909725;55;21046;-37
2022/11/01 04:39:09;;;;;;;49.30;36.83;;;22.70;56.40;;;;;;4860130;55;21009;-43
2022/11/01 04:44:10;;;;;;;46.53;36.35;;;22.70;56.40;;;;;;4904625;55;21022;-35
2022/11/01 04:49:11;;;;;;;44.70;35.28;;;22.70;56.50;;;;;;4972655;55;21583;-40
2022/11/01 04:54:11;;;;;;;48.40;35.67;;;22.70;56.50;;;;;;4839615;55;21029;-43
2022/11/01 04:59:12;;;;;;;48.38;36.38;;;22.70;56.30;;;;;;4745598;59;20995;-31
2022/11/01 05:04:13;;;;;;;46.00;35.35;;;22.70;56.20;;;;;;4745203;59;21018;-44
2022/11/01 05:09:14;;;;;;;46.13;35.97;;;22.70;56.30;;;;;;5230832;55;21095;-41
2022/11/01 05:14:15;;;;;;;46.97;35.20;;;22.70;56.50;;;;;;4745335;59;21559;-43
2022/11/01 05:19:16;;;;;;;43.05;33.47;;;22.70;56.60;;;;;;4784337;55;21053;-47
2022/11/01 05:24:17;;;;;;;43.83;33.50;;;22.70;56.60;;;;;;4762124;55;21021;-35
2022/11/01 05:29:18;;;;;;;44.30;33.17;;;22.70;56.50;;;;;;4833524;55;21491;-38
2022/11/01 05:34:19;;;;;;;42.47;32.70;;;22.70;56.30;;;;;;5051338;55;21057;-47
2022/11/01 05:39:20;;;;;;;42.33;33.55;;;22.70;56.60;;;;;;4784230;55;21013;-45
2022/11/01 05:44:20;;;;;;;40.35;30.62;;;22.70;56.30;;;;;;5176363;55;21077;-39
2022/11/01 05:49:21;;;;;;;45.35;33.35;;;22.70;56.40;;;;;;5042042;55;21555;-47
2022/11/01 05:54:23;;;;;;;39.88;31.35;;;22.70;56.20;;;;;;4907351;55;21073;-41
2022/11/01 05:59:24;;;;;;;43.30;32.03;;;22.70;56.20;;;;;;4884688;55;21476;-38
2022/11/01 06:04:24;;;;;;;44.22;31.83;;;22.70;56.30;;;;;;4834320;55;21017;-33
2022/11/01 06:09:25;;;;;;;40.78;31.67;;;22.70;56.20;;;;;;4809235;55;21464;-38
2022/11/01 06:14:26;;;;;;;39.80;30.50;;;22.60;56.20;;;;;;4913046;55;21061;-41
2022/11/01 06:19:27;;;;;;;41.47;31.02;;;22.70;56.30;;;;;;4745242;59;21049;-38
2022/11/01 06:24:28;;;;;;;39.92;32.25;;;22.70;56.20;;;;;;4974854;55;21073;-42
2022/11/01 06:29:28;;;;;;;38.55;30.45;;;22.70;56.30;;;;;;4745588;59;21005;-45
2022/11/01 06:34:30;;;;;;;40.67;31.92;;;22.70;56.00;;;;;;4793789;55;21468;-43
2022/11/01 06:39:30;;;;;;;41.03;31.48;;;22.70;56.50;;;;;;4745321;59;21074;-42
2022/11/01 06:44:31;;;;;;;39.97;30.55;;;22.70;56.10;;;;;;4789244;55;21021;-45
2022/11/01 06:49:32;;;;;;;42.33;31.83;;;22.70;55.90;;;;;;4787302;55;21057;-44
2022/11/01 06:54:33;;;;;;;40.78;31.85;;;22.70;56.00;;;;;;4745472;59;21013;-41
2022/11/01 06:59:34;;;;;;;42.22;32.10;;;22.70;55.90;;;;;;4867879;55;21093;-34
2022/11/01 07:04:35;;;;;;;39.65;30.92;;;22.70;55.90;;;;;;4839812;55;21014;-46
2022/11/01 07:09:36;;;;;;;41.40;30.70;;;22.70;55.90;;;;;;4745302;59;21594;-46
2022/11/01 07:14:37;;;;;;;43.97;32.67;;;22.70;55.60;;;;;;4944832;55;21013;-48
2022/11/01 07:19:38;;;;;;;39.20;31.12;;;22.70;55.90;;;;;;4825131;55;21106;-41
2022/11/01 07:24:39;;;;;;;36.40;30.05;;;22.70;55.90;;;;;;4744991;59;21491;-39
2022/11/01 07:29:40;;;;;;;42.97;31.77;;;22.70;55.70;;;;;;4745663;59;21017;-35
2022/11/01 07:34:41;;;;;;;39.38;30.83;;;22.70;55.80;;;;;;4823775;55;21475;-36
2022/11/01 07:39:42;;;;;;;39.35;31.10;;;22.70;55.80;;;;;;4745333;59;21038;-33
2022/11/01 07:44:44;;;;;;;40.47;31.05;;;22.70;55.80;;;;;;4771803;55;21105;-38
2022/11/01 07:49:46;;;;;;;40.67;32.53;;;22.70;55.70;;;;;;4784982;55;21519;-31
2022/11/01 07:54:47;;;;;;;42.67;33.55;;;22.70;55.60;;;;;;4943840;55;21476;-43
2022/11/01 07:59:48;;;;;;;41.17;32.78;;;22.70;55.60;;;;;;4812657;55;21022;-39
2022/11/01 08:04:49;;;;;;;80.55;48.22;;;22.70;55.70;;;;;;4789182;55;21010;-41
2022/11/01 08:09:49;;;;;;;68.72;48.60;;;22.70;52.30;;;;;;4906788;55;21025;-32
2022/11/01 08:14:50;;;;;;;65.32;46.22;;;22.70;51.00;;;;;;4745182;59;21468;-32
2022/11/01 08:19:51;;;;;;;70.40;45.00;;;22.60;50.90;;;;;;4777105;55;21029;-28
2022/11/01 08:24:52;;;;;;;54.53;39.45;;;22.60;50.60;;;;;;4913901;55;20994;-31
2022/11/01 08:29:53;;;;;;;63.72;43.22;;;22.70;50.70;;;;;;4742755;59;21488;-37
2022/11/01 08:34:53;;;;;;;68.85;44.75;;;22.70;50.80;;;;;;4981322;55;21069;-28
2022/11/01 08:39:54;;;;;;;74.10;50.05;;;22.70;50.70;;;;;;4942116;55;21544;-31
2022/11/01 08:44:55;;;;;;;76.00;49.50;;;22.70;50.70;;;;;;4744088;59;21535;-29
2022/11/01 08:49:56;;;;;;;72.10;48.22;;;22.80;50.80;;;;;;4744551;59;21017;-32
2022/11/01 08:54:56;;;;;;;79.50;51.72;;;22.80;51.10;;;;;;4791663;55;21105;-40
2022/11/01 08:59:57;;;;;;;77.25;50.58;;;22.70;51.00;;;;;;4886676;55;21082;-35
2022/11/01 09:05:01;;;;;;;80.72;54.45;;;22.80;51.00;;;;;;4795662;55;21057;-33
2022/11/01 09:10:03;;;;;;;80.05;52.67;;;22.80;51.00;;;;;;4806182;55;21547;-40
2022/11/01 09:15:05;;;;;;;90.80;56.47;;;22.80;51.40;;;;;;5003553;55;21054;-32
2022/11/01 09:20:08;;;;;;;78.10;54.17;;;22.80;51.70;;;;;;4975842;55;21125;-32
2022/11/01 09:25:11;;;;;;;79.50;55.03;;;22.90;51.80;;;;;;4965262;55;21540;-30
2022/11/01 09:30:12;;;;;;;83.57;54.25;;;22.90;51.80;;;;;;4838664;55;21634;-31
2022/11/01 09:35:13;;;;;;;69.70;49.13;;;22.90;52.00;;;;;;4850934;55;21002;-35
2022/11/01 09:40:14;;;;;;;81.87;52.15;;;22.90;51.90;;;;;;4915954;55;21011;-30
2022/11/01 09:45:19;;;;;;;98.35;66.62;;;22.90;52.00;;;;;;4935917;55;21094;-39
2022/11/01 09:50:38;;;;;;;108.22;70.12;;;22.90;51.10;;;;;;4745682;55;21073;-30
2022/11/01 09:56:09;;;;;;;99.72;67.57;;;23.00;51.60;;;;;;4745212;59;21078;-29
2022/11/01 10:01:38;;;;;;;98.32;65.45;;;23.00;52.00;;;;;;4839617;55;21508;-27
2022/11/01 10:06:45;;;;;;;101.53;65.35;;;23.10;52.40;;;;;;4801544;55;21464;-39
2022/11/01 10:12:10;;;;;;;99.45;66.55;;;23.20;52.90;;;;;;5004040;55;21090;-42
2022/11/01 10:17:16;;;;;;;95.65;65.47;;;23.20;53.40;;;;;;4744841;59;20994;-32
2022/11/01 10:22:42;;;;;;;92.18;62.35;;;23.20;53.60;;;;;;4744680;59;21010;-43
2022/11/01 10:31:25;;;;;;;85.07;60.38;;;23.30;54.10;;;;;;4744372;59;21010;-37
2022/11/01 10:36:33;;;;;;;100.80;68.18;;;23.30;54.30;;;;;;4780087;55;21531;-42
2022/11/01 10:41:42;;;;;;;95.32;66.70;;;23.30;54.10;;;;;;4830355;55;20994;-32
2022/11/01 10:46:46;;;;;;;98.30;65.78;;;23.20;54.20;;;;;;4790104;55;21006;-44
2022/11/01 10:51:48;;;;;;;95.87;65.75;;;23.30;54.20;;;;;;4821913;55;21062;-39
2022/11/01 10:56:52;;;;;;;92.35;65.20;;;23.20;54.30;;;;;;4793813;55;21050;-34
2022/11/01 11:01:54;;;;;;;92.62;64.15;;;23.30;54.40;;;;;;4950048;55;21050;-36
2022/11/01 11:06:55;;;;;;;88.80;62.35;;;23.20;54.40;;;;;;4787797;55;21476;-31
2022/11/01 11:12:02;;;;;;;91.07;64.53;;;23.30;54.90;;;;;;4955950;55;21465;-43
2022/11/01 11:17:09;;;;;;;89.95;59.70;;;23.30;55.10;;;;;;4816946;55;21484;-28
2022/11/01 11:22:11;;;;;;;84.25;60.58;;;23.40;55.50;;;;;;4847305;55;21098;-35
2022/11/01 11:27:28;;;;;;;84.57;59.45;;;23.40;55.70;;;;;;4788942;55;21492;-39
2022/11/01 11:32:38;;;;;;;80.62;58.03;;;23.40;55.90;;;;;;4810801;55;21074;-44
2022/11/01 11:37:48;;;;;;;80.45;58.15;;;23.50;56.20;;;;;;5004140;55;21078;-33
2022/11/01 11:42:51;;;;;;;80.22;57.47;;;23.50;56.80;;;;;;4763543;55;21035;-27
2022/11/01 11:47:53;;;;;;;79.37;55.95;;;23.50;57.10;;;;;;4743910;59;21607;-43
2022/11/01 11:53:00;;;;;;;82.22;58.40;;;23.50;57.30;;;;;;4744876;59;21038;-35
2022/11/01 11:58:04;;;;;;;77.43;56.53;;;23.50;57.50;;;;;;4791174;55;21054;-31
2022/11/01 12:03:06;;;;;;;77.03;53.65;;;23.60;57.90;;;;;;4785009;55;21465;-37
2022/11/01 12:08:41;;;;;;;81.25;56.13;;;23.60;57.80;;;;;;4828906;55;21452;-37
2022/11/01 12:13:45;;;;;;;77.12;55.30;;;23.60;58.00;;;;;;4745006;59;21061;-35
2022/11/01 12:19:00;;;;;;;76.55;55.20;;;23.60;58.40;;;;;;4853324;55;21563;-41
2022/11/01 12:25:32;;;;;;;70.80;52.35;;;23.70;58.70;;;;;;4776058;55;21050;-30
2022/11/01 12:30:36;;;;;;;75.87;54.33;;;23.70;59.30;;;;;;4762372;55;21086;-35
2022/11/01 12:35:43;;;;;;;69.25;51.45;;;23.70;59.20;;;;;;4745119;56;21030;-31
2022/11/01 12:40:48;;;;;;;72.12;52.78;;;23.70;59.50;;;;;;4981956;55;21046;-29
2022/11/01 12:46:15;;;;;;;73.53;52.00;;;23.70;59.60;;;;;;4745039;59;21548;-27
2022/11/01 12:51:28;;;;;;;69.90;52.40;;;23.80;59.90;;;;;;4800031;55;21524;-27
2022/11/01 12:56:28;;;;;;;66.47;51.08;;;23.80;60.10;;;;;;4929636;55;21476;-27
2022/11/01 13:04:36;;;;;;;64.68;49.90;;;23.80;60.30;;;;;;4839481;55;21006;-29
2022/11/01 13:10:04;;;;;;;62.15;48.40;;;23.80;60.30;;;;;;4876238;55;21417;-33
2022/11/01 13:15:42;;;;;;;64.00;48.92;;;23.80;60.50;;;;;;4769167;55;21544;-29
2022/11/01 13:21:52;;;;;;;64.05;49.70;;;23.80;60.80;;;;;;4744742;59;21011;-40
2022/11/01 13:27:24;;;;;;;63.80;49.25;;;23.90;61.20;;;;;;4777220;55;21001;-36
2022/11/01 13:32:54;;;;;;;65.85;46.22;;;23.90;60.80;;;;;;4785969;55;21163;-41
2022/11/01 13:38:32;;;;;;;63.70;46.37;;;23.90;61.00;;;;;;4745611;55;21095;-33
2022/11/01 13:43:44;;;;;;;64.03;47.53;;;23.90;61.00;;;;;;4745357;59;21601;-37
2022/11/01 13:52:01;;;;;;;61.28;45.72;;;23.90;61.10;;;;;;4745204;55;20994;-29
2022/11/01 13:57:17;;;;;;;56.78;43.78;;;23.90;60.80;;;;;;4768912;55;21492;-37
2022/11/01 14:04:58;;;;;;;62.50;46.10;;;24.00;60.90;;;;;;4828595;55;21118;-36
2022/11/01 14:09:59;;;;;;;58.53;44.05;;;24.00;60.70;;;;;;4745153;59;21113;-43
2022/11/01 14:15:27;;;;;;;64.25;47.00;;;23.90;61.10;;;;;;4856997;55;21560;-45
2022/11/01 14:20:51;;;;;;;62.15;46.97;;;24.00;61.30;;;;;;4744443;59;21081;-35
2022/11/01 14:26:23;;;;;;;62.28;47.62;;;24.00;61.00;;;;;;4858831;55;21007;-42
2022/11/01 14:31:27;;;;;;;65.97;48.13;;;24.00;61.20;;;;;;4850708;55;21499;-48
2022/11/01 14:36:32;;;;;;;67.25;49.35;;;24.00;61.00;;;;;;4844896;55;21099;-32
2022/11/01 14:41:37;;;;;;;73.72;50.83;;;24.00;61.00;;;;;;4745083;59;21533;-41
2022/11/01 14:46:42;;;;;;;337.80;267.92;;;24.00;60.90;;;;;;4860117;55;21014;-48
2022/11/01 14:51:50;;;;;;;492.63;439.95;;;24.00;60.90;;;;;;4949128;55;21010;-37
2022/11/01 14:56:54;;;;;;;419.15;374.55;;;24.00;61.70;;;;;;4839331;55;21155;-41
2022/11/01 15:02:02;;;;;;;721.53;647.35;;;24.00;61.80;;;;;;4784841;55;21492;-46
2022/11/01 15:07:03;;;;;;;567.40;509.00;;;23.90;62.10;;;;;;4792259;55;21069;-48
2022/11/01 15:12:09;;;;;;;569.97;511.80;;;23.90;62.00;;;;;;4921607;55;21081;-41
2022/11/01 15:17:24;;;;;;;537.45;480.92;;;23.90;62.10;;;;;;4859905;55;21061;-43
2022/11/01 15:22:32;;;;;;;501.13;444.13;;;23.90;62.20;;;;;;4751879;55;21086;-46
2022/11/01 15:27:40;;;;;;;511.15;456.40;;;23.80;61.40;;;;;;4747072;55;21109;-46
2022/11/01 15:32:41;;;;;;;502.95;449.20;;;23.80;62.20;;;;;;4744945;59;21085;-47
2022/11/01 15:37:48;;;;;;;493.00;440.40;;;23.70;62.30;;;;;;4853413;55;20990;-46
2022/11/01 15:42:59;;;;;;;491.33;438.80;;;23.70;62.50;;;;;;4761482;55;21460;-44
2022/11/01 15:48:07;;;;;;;468.65;418.15;;;23.70;62.30;;;;;;4743212;59;21514;-51
2022/11/01 15:53:12;;;;;;;476.95;425.62;;;23.60;62.50;;;;;;4761888;55;21472;-46
2022/11/01 15:58:26;;;;;;;463.00;413.40;;;23.60;62.90;;;;;;4836188;55;21455;-44
2022/11/01 16:04:13;;;;;;;452.30;403.27;;;23.50;62.70;;;;;;4744698;59;20990;-40
2022/11/01 16:11:21;;;;;;;458.23;409.30;;;23.60;62.90;;;;;;4745459;56;21594;-43
2022/11/01 16:16:22;;;;;;;444.40;395.40;;;23.50;62.80;;;;;;4751095;55;21492;-45
2022/11/01 16:21:27;;;;;;;444.20;396.20;;;23.50;62.90;;;;;;4880446;55;21017;-45
2022/11/01 16:26:28;;;;;;;441.23;393.45;;;23.50;63.00;;;;;;4826362;55;21006;-45
2022/11/01 16:31:29;;;;;;;434.15;386.55;;;23.40;63.10;;;;;;4745401;55;21013;-45
2022/11/01 16:36:36;;;;;;;436.73;389.02;;;23.50;63.20;;;;;;4745194;56;21492;-43
2022/11/01 16:41:37;;;;;;;424.33;377.55;;;23.40;63.20;;;;;;4745409;59;20998;-40
2022/11/01 16:46:38;;;;;;;425.90;379.13;;;23.40;63.20;;;;;;4939412;55;20981;-47
2022/11/01 16:51:39;;;;;;;419.80;373.20;;;23.40;63.10;;;;;;5230889;55;21062;-44
2022/11/01 16:56:49;;;;;;;419.35;373.60;;;23.30;63.00;;;;;;5003399;55;21014;-49
2022/11/01 17:01:50;;;;;;;412.05;366.70;;;23.40;63.20;;;;;;5230605;55;21042;-43
2022/11/01 17:06:52;;;;;;;410.48;365.35;;;23.40;63.20;;;;;;4911310;55;21496;-44
2022/11/01 17:11:53;;;;;;;408.95;363.83;;;23.30;63.10;;;;;;4971778;55;21137;-43
2022/11/01 17:16:55;;;;;;;403.60;359.10;;;23.30;63.10;;;;;;4745015;59;21057;-39
2022/11/01 17:21:57;;;;;;;403.98;359.67;;;23.30;63.20;;;;;;4900916;55;21583;-47
2022/11/01 17:27:03;;;;;;;394.15;350.13;;;23.30;63.00;;;;;;4838451;55;21066;-45
2022/11/01 17:32:08;;;;;;;389.00;346.30;;;23.30;63.10;;;;;;4884716;55;21536;-43
2022/11/01 17:37:15;;;;;;;391.95;348.83;;;23.30;63.00;;;;;;4745284;55;21612;-42
2022/11/01 17:42:16;;;;;;;383.20;339.90;;;23.30;63.00;;;;;;4744982;59;21532;-45
2022/11/01 17:47:17;;;;;;;382.23;339.42;;;23.30;63.20;;;;;;4744512;59;21074;-46
2022/11/01 17:52:18;;;;;;;377.08;336.08;;;23.30;63.20;;;;;;4899704;55;21093;-44
2022/11/01 17:57:18;;;;;;;377.67;333.25;;;23.30;63.10;;;;;;4744444;59;21544;-45
2022/11/01 18:02:19;;;;;;;375.98;334.20;;;23.30;63.00;;;;;;4955244;55;20994;-45
2022/11/01 18:07:20;;;;;;;369.48;329.13;;;23.30;63.00;;;;;;4839933;55;21222;-37
2022/11/01 18:12:33;;;;;;;370.17;328.55;;;23.30;63.00;;;;;;4744920;59;21061;-46
2022/11/01 18:17:59;;;;;;;365.67;325.23;;;23.20;62.90;;;;;;4770315;55;21472;-44
2022/11/01 18:23:04;;;;;;;352.48;313.98;;;23.30;62.80;;;;;;4902285;55;21005;-43
2022/11/01 18:28:26;;;;;;;358.77;319.40;;;23.20;62.90;;;;;;4800119;55;21551;-44
2022/11/01 18:33:49;;;;;;;354.33;315.60;;;23.30;63.10;;;;;;4862482;55;21044;-44
2022/11/01 18:39:19;;;;;;;348.50;310.48;;;23.20;63.00;;;;;;4781062;55;21472;-41
2022/11/01 18:44:20;;;;;;;354.02;314.73;;;23.20;62.80;;;;;;4819416;55;21100;-40
2022/11/01 18:49:25;;;;;;;352.60;313.70;;;23.20;63.00;;;;;;4745092;59;20978;-43
2022/11/01 18:54:29;;;;;;;343.98;306.60;;;23.20;63.00;;;;;;4842346;55;21001;-43
2022/11/01 18:59:37;;;;;;;342.85;305.27;;;23.20;62.90;;;;;;4799092;55;21038;-39
2022/11/01 19:04:43;;;;;;;335.30;298.55;;;23.20;63.00;;;;;;4779370;55;21515;-39
2022/11/01 19:10:06;;;;;;;338.70;301.67;;;23.20;62.90;;;;;;4947981;55;21037;-36
2022/11/01 19:15:29;;;;;;;340.70;303.23;;;23.20;63.00;;;;;;4872769;55;21472;-49
2022/11/01 19:20:40;;;;;;;329.60;293.37;;;23.20;62.90;;;;;;4744703;59;21015;-40
2022/11/01 19:25:44;;;;;;;326.60;291.15;;;23.20;62.70;;;;;;4790427;55;21500;-45
2022/11/01 19:30:50;;;;;;;319.20;284.70;;;23.20;62.70;;;;;;5020539;55;21014;-38
2022/11/01 19:35:54;;;;;;;324.52;289.20;;;23.20;62.90;;;;;;4856471;55;21053;-40
2022/11/01 19:40:54;;;;;;;323.08;288.23;;;23.20;62.70;;;;;;4870727;55;21113;-41
2022/11/01 19:45:58;;;;;;;318.48;284.17;;;23.20;62.70;;;;;;4993908;55;21018;-43
2022/11/01 19:50:59;;;;;;;311.65;277.58;;;23.20;62.70;;;;;;4779221;55;21397;-42
2022/11/01 19:56:07;;;;;;;308.30;274.80;;;23.20;63.10;;;;;;4744978;59;21484;-42
2022/11/01 20:01:53;;;;;;;305.10;272.00;;;23.20;62.40;;;;;;4954253;55;21054;-43
2022/11/01 20:07:09;;;;;;;298.13;265.40;;;23.30;62.60;;;;;;4809867;55;21476;-41
2022/11/01 20:12:10;;;;;;;297.05;264.52;;;23.20;62.30;;;;;;4808651;55;21001;-39
2022/11/01 20:17:11;;;;;;;302.40;269.83;;;23.20;62.40;;;;;;4910810;55;21033;-45
2022/11/01 20:22:12;;;;;;;288.75;257.17;;;23.20;62.60;;;;;;4837354;55;21067;-38
2022/11/01 20:27:13;;;;;;;289.83;258.08;;;23.10;62.40;;;;;;4744027;59;21013;-45
2022/11/01 20:32:14;;;;;;;287.92;256.42;;;23.20;62.30;;;;;;4745254;59;21037;-45
2022/11/01 20:37:14;;;;;;;280.37;249.85;;;23.20;63.00;;;;;;4927863;55;21074;-43
2022/11/01 20:42:15;;;;;;;277.85;247.40;;;23.10;62.30;;;;;;4808282;55;21061;-41
2022/11/01 20:47:16;;;;;;;283.45;252.70;;;23.10;62.20;;;;;;4892720;55;21006;-49
2022/11/01 20:52:17;;;;;;;274.48;244.10;;;23.10;62.10;;;;;;4959061;55;21125;-41
2022/11/01 20:57:17;;;;;;;274.65;244.77;;;23.10;62.10;;;;;;4755878;55;21527;-44
2022/11/01 21:02:19;;;;;;;272.50;242.05;;;23.10;62.20;;;;;;4828444;55;21130;-36
2022/11/01 21:07:20;;;;;;;265.55;236.45;;;23.10;62.10;;;;;;4824017;55;21496;-28
2022/11/01 21:12:44;;;;;;;255.70;227.55;;;23.10;62.10;;;;;;4745619;59;20994;-38
2022/11/01 21:17:45;;;;;;;257.20;228.98;;;23.10;62.00;;;;;;4750217;55;21046;-40
2022/11/01 21:22:46;;;;;;;260.48;231.73;;;23.10;62.00;;;;;;4921808;55;21452;-38
2022/11/01 21:27:49;;;;;;;253.50;225.98;;;23.10;62.60;;;;;;4744985;59;21065;-36
2022/11/01 21:32:50;;;;;;;243.95;216.55;;;23.10;61.90;;;;;;4745730;59;21480;-45
2022/11/01 21:37:53;;;;;;;255.57;224.25;;;23.10;62.10;;;;;;4778054;55;21054;-38
2022/11/01 21:42:58;;;;;;;241.45;214.77;;;23.10;61.90;;;;;;4745926;59;20962;-30
2022/11/01 21:48:12;;;;;;;241.27;214.73;;;23.10;61.90;;;;;;4891674;55;21002;-38
2022/11/01 21:53:13;;;;;;;233.32;204.73;;;23.00;61.80;;;;;;4900623;55;21049;-42
2022/11/01 21:58:14;;;;;;;230.80;202.00;;;23.10;61.70;;;;;;5191804;55;21009;-31
2022/11/01 22:03:15;;;;;;;233.82;205.95;;;23.10;61.70;;;;;;4863786;55;21472;-33
2022/11/01 22:08:15;;;;;;;227.73;202.73;;;23.00;61.50;;;;;;4744911;59;21133;-39
2022/11/01 22:13:16;;;;;;;220.98;196.10;;;23.00;61.60;;;;;;4770622;55;20994;-39
2022/11/01 22:18:17;;;;;;;220.98;196.57;;;23.00;61.40;;;;;;4745342;59;21022;-37
2022/11/01 22:23:18;;;;;;;211.18;187.80;;;23.00;61.50;;;;;;4745538;59;21551;-32
2022/11/01 22:28:19;;;;;;;213.23;185.40;;;23.00;61.40;;;;;;5134831;55;21452;-37
2022/11/01 22:33:20;;;;;;;212.12;183.93;;;23.00;61.40;;;;;;5198242;55;21536;-39
2022/11/01 22:38:22;;;;;;;206.30;181.37;;;23.00;61.40;;;;;;4791652;55;21471;-40
2022/11/01 22:43:23;;;;;;;204.50;176.60;;;23.00;61.40;;;;;;4883054;55;20986;-38
2022/11/01 22:48:24;;;;;;;206.32;180.60;;;23.00;61.30;;;;;;5230593;55;20983;-40
2022/11/01 22:53:25;;;;;;;199.95;173.98;;;23.00;61.20;;;;;;4745821;55;21010;-35
2022/11/01 22:58:36;;;;;;;199.60;169.37;;;23.00;61.50;;;;;;4874260;55;21034;-28
2022/11/01 23:03:39;;;;;;;192.52;166.15;;;23.00;61.40;;;;;;4907921;55;21025;-37
2022/11/01 23:08:40;;;;;;;186.35;159.87;;;23.00;61.30;;;;;;4848157;55;21444;-30
2022/11/01 23:19:04;;;;;;;185.12;156.48;;;23.00;61.30;;;;;;4744832;55;21085;-31
2022/11/01 23:24:08;;;;;;;183.37;157.90;;;23.00;61.40;;;;;;5230770;55;21053;-36
2022/11/01 23:29:09;;;;;;;177.50;149.82;;;23.00;61.50;;;;;;4745679;59;21555;-37
2022/11/01 23:34:10;;;;;;;177.98;150.20;;;23.00;61.30;;;;;;4829428;55;21006;-34
2022/11/01 23:39:13;;;;;;;169.10;143.80;;;23.00;61.20;;;;;;4774831;55;21133;-32
2022/11/01 23:44:35;;;;;;;173.10;146.52;;;23.00;61.30;;;;;;4826298;55;21091;-34
2022/11/01 23:49:36;;;;;;;168.70;143.25;;;23.00;61.30;;;;;;4944636;55;20994;-40
2022/11/01 23:54:40;;;;;;;173.85;145.23;;;23.00;61.50;;;;;;4829548;55;21065;-33
2022/11/01 23:59:41;;;;;;;161.12;138.15;;;23.00;61.30;;;;;;5068519;55;21471;-39
